Time;durP1;ratioP1;P1;durP2;ratioP2;P2;SDS_P1;SDS_P2;PMS_P1;PMS_P2;Temp;Humidity;BMP_temperature;BMP_pressure;BME280_temperature;BME280_humidity;BME280_pressure;Samples;Min_cycle;Max_cycle;Signal;HPM_P1;HPM_P2
2021/10/15 00:01:37;;;;;;;4.90;3.08;;;16.60;72.50;;;;;;4880371;29;20029;-85
2021/10/15 00:04:02;;;;;;;4.55;3.28;;;16.60;71.90;;;;;;4848907;29;20108;-85
2021/10/15 00:06:28;;;;;;;4.30;3.13;;;16.60;72.50;;;;;;4912827;29;20492;-84
2021/10/15 00:08:54;;;;;;;4.45;3.13;;;16.60;71.90;;;;;;4867834;29;20036;-86
2021/10/15 00:11:20;;;;;;;4.70;3.30;;;16.60;71.90;;;;;;4883226;29;20056;-86
2021/10/15 00:13:46;;;;;;;4.93;3.00;;;16.60;71.90;;;;;;4867902;29;20033;-85
2021/10/15 00:16:12;;;;;;;3.67;2.95;;;16.60;71.90;;;;;;4914855;29;20123;-84
2021/10/15 00:18:41;;;;;;;4.00;2.72;;;16.60;71.90;;;;;;4883411;29;20053;-86
2021/10/15 00:21:06;;;;;;;4.43;3.22;;;16.50;71.80;;;;;;4915437;29;20036;-86
2021/10/15 00:23:32;;;;;;;4.10;2.80;;;16.50;71.80;;;;;;4914551;29;20033;-86
2021/10/15 00:26:01;;;;;;;4.43;3.00;;;16.50;71.90;;;;;;4867662;29;20033;-86
2021/10/15 00:28:27;;;;;;;4.32;2.97;;;16.50;71.90;;;;;;4867327;29;20037;-86
2021/10/15 00:30:57;;;;;;;4.32;3.00;;;16.50;71.90;;;;;;4867953;29;20112;-86
2021/10/15 00:33:26;;;;;;;4.53;2.88;;;16.50;71.90;;;;;;4883568;29;20044;-86
2021/10/15 00:36:15;;;;;;;3.95;2.83;;;16.50;71.90;;;;;;4868888;29;20423;-85
2021/10/15 00:38:44;;;;;;;4.82;2.92;;;16.50;72.00;;;;;;4867292;29;20040;-86
2021/10/15 00:41:10;;;;;;;3.85;2.78;;;16.50;71.90;;;;;;4868019;29;20037;-85
2021/10/15 00:44:01;;;;;;;5.32;3.10;;;16.50;71.90;;;;;;4868590;29;20044;-87
2021/10/15 00:46:27;;;;;;;4.30;2.85;;;16.50;72.10;;;;;;4898662;29;20108;-86
2021/10/15 00:48:53;;;;;;;4.93;2.83;;;16.50;71.90;;;;;;4867219;29;20120;-86
2021/10/15 00:51:20;;;;;;;4.53;3.13;;;16.40;71.80;;;;;;4882820;29;20107;-86
2021/10/15 00:53:48;;;;;;;4.95;3.20;;;16.40;71.90;;;;;;4882381;29;20029;-86
2021/10/15 00:56:15;;;;;;;3.92;3.13;;;16.40;71.90;;;;;;4882412;29;20046;-85
2021/10/15 00:58:41;;;;;;;3.65;2.63;;;16.40;71.90;;;;;;4883177;29;20037;-86
2021/10/15 01:01:07;;;;;;;4.60;2.92;;;16.40;71.90;;;;;;4867196;29;20048;-86
2021/10/15 01:03:36;;;;;;;4.35;3.28;;;16.40;71.90;;;;;;4882376;29;20120;-87
2021/10/15 01:06:03;;;;;;;4.05;2.92;;;16.40;71.90;;;;;;4882055;29;20028;-86
2021/10/15 01:08:31;;;;;;;3.50;2.80;;;16.40;71.90;;;;;;4913899;29;20076;-86
2021/10/15 01:10:58;;;;;;;4.65;2.90;;;16.40;71.90;;;;;;4866666;29;20077;-86
2021/10/15 01:13:25;;;;;;;4.00;2.58;;;16.40;71.90;;;;;;4883584;29;20060;-86
2021/10/15 01:16:00;;;;;;;4.63;3.13;;;16.40;71.90;;;;;;4881801;29;20068;-86
2021/10/15 01:18:29;;;;;;;4.00;2.85;;;16.40;71.90;;;;;;4881887;29;20068;-86
2021/10/15 01:20:57;;;;;;;4.63;2.90;;;16.40;71.90;;;;;;4867206;29;20025;-86
2021/10/15 01:23:23;;;;;;;4.03;3.08;;;16.40;71.90;;;;;;4882215;29;20037;-85
2021/10/15 01:25:53;;;;;;;3.70;2.65;;;16.40;71.90;;;;;;4866357;29;20040;-86
2021/10/15 01:28:21;;;;;;;4.43;3.13;;;16.30;71.90;;;;;;4913457;29;20033;-86
2021/10/15 01:30:56;;;;;;;4.32;2.60;;;16.30;71.90;;;;;;4868097;29;20049;-86
2021/10/15 01:33:26;;;;;;;3.33;2.50;;;16.30;72.00;;;;;;4886062;29;20029;-86
2021/10/15 01:35:58;;;;;;;3.95;2.83;;;16.30;71.90;;;;;;4885587;29;20037;-86
2021/10/15 01:38:25;;;;;;;3.95;2.90;;;16.30;71.90;;;;;;4901296;29;20033;-87
2021/10/15 01:40:51;;;;;;;4.90;3.20;;;16.30;71.90;;;;;;4898985;29;20025;-87
2021/10/15 01:43:21;;;;;;;4.25;3.08;;;16.30;71.90;;;;;;4880504;29;20045;-79
2021/10/15 01:45:47;;;;;;;4.35;3.17;;;16.30;71.90;;;;;;4880335;29;20173;-79
2021/10/15 01:48:13;;;;;;;4.90;3.10;;;16.30;71.90;;;;;;4896774;29;20498;-80
2021/10/15 01:50:39;;;;;;;4.72;3.03;;;16.30;71.90;;;;;;4911915;29;20033;-79
2021/10/15 01:53:05;;;;;;;4.65;2.92;;;16.30;71.90;;;;;;4880385;29;20048;-79
2021/10/15 01:55:31;;;;;;;4.15;3.03;;;16.30;71.90;;;;;;4911879;29;20490;-79
2021/10/15 01:57:57;;;;;;;4.65;3.10;;;16.30;71.90;;;;;;4864984;29;20041;-79
2021/10/15 02:00:23;;;;;;;4.68;3.15;;;16.30;72.00;;;;;;4880238;29;20048;-80
2021/10/15 02:02:48;;;;;;;5.10;2.92;;;16.20;71.90;;;;;;4895780;29;20033;-79
2021/10/15 02:05:17;;;;;;;4.43;3.10;;;16.30;71.90;;;;;;4880107;29;20053;-80
2021/10/15 02:07:45;;;;;;;5.47;2.95;;;16.20;71.90;;;;;;4881768;29;20033;-79
2021/10/15 02:10:13;;;;;;;3.80;2.45;;;16.30;72.00;;;;;;4864451;29;20044;-80
2021/10/15 02:12:39;;;;;;;4.47;3.20;;;16.30;72.00;;;;;;4911357;29;20036;-80
2021/10/15 02:15:07;;;;;;;4.03;2.95;;;16.20;72.00;;;;;;4895565;29;20093;-80
2021/10/15 02:17:32;;;;;;;4.57;3.10;;;16.20;71.90;;;;;;4880534;29;20430;-80
2021/10/15 02:19:58;;;;;;;4.30;2.97;;;16.20;71.90;;;;;;4864348;29;20040;-80
2021/10/15 02:22:24;;;;;;;4.65;3.17;;;16.20;71.90;;;;;;4881042;29;20041;-79
2021/10/15 02:24:50;;;;;;;4.00;2.80;;;16.20;71.90;;;;;;4880524;29;20029;-80
2021/10/15 02:27:16;;;;;;;4.20;3.25;;;16.20;71.90;;;;;;4864058;29;20044;-79
2021/10/15 02:29:43;;;;;;;4.80;3.28;;;16.20;72.00;;;;;;4864473;29;20123;-80
2021/10/15 02:32:09;;;;;;;4.68;3.03;;;16.20;71.90;;;;;;4879595;29;20471;-79
2021/10/15 02:34:35;;;;;;;4.50;2.78;;;16.20;72.00;;;;;;4880915;29;20347;-80
2021/10/15 02:37:00;;;;;;;4.60;3.15;;;16.20;72.00;;;;;;4880494;29;20028;-80
2021/10/15 02:39:26;;;;;;;3.97;2.88;;;16.20;72.00;;;;;;4910900;29;20081;-79
2021/10/15 02:41:52;;;;;;;4.20;3.00;;;16.20;72.00;;;;;;4879227;29;20029;-79
2021/10/15 02:44:17;;;;;;;4.18;3.00;;;16.20;72.10;;;;;;4880269;29;20482;-80
2021/10/15 02:46:44;;;;;;;4.68;3.35;;;16.20;72.00;;;;;;4879626;29;20033;-79
2021/10/15 02:49:10;;;;;;;4.28;2.90;;;16.20;72.00;;;;;;4910874;29;20055;-80
2021/10/15 02:51:36;;;;;;;4.60;3.30;;;16.20;72.00;;;;;;4880499;29;20037;-80
2021/10/15 02:54:03;;;;;;;4.40;3.08;;;16.20;72.10;;;;;;4863748;29;20025;-80
2021/10/15 02:56:29;;;;;;;3.83;2.88;;;16.20;72.10;;;;;;4910554;29;20127;-79
2021/10/15 02:58:56;;;;;;;4.40;3.25;;;16.20;72.10;;;;;;4863631;29;20505;-79
2021/10/15 03:01:22;;;;;;;3.72;2.88;;;16.10;72.00;;;;;;4878982;29;20033;-80
2021/10/15 03:03:49;;;;;;;4.85;3.10;;;16.20;72.10;;;;;;4863781;29;20040;-79
2021/10/15 03:06:17;;;;;;;5.25;3.35;;;16.10;72.10;;;;;;4880070;29;20029;-79
2021/10/15 03:08:42;;;;;;;4.00;3.00;;;16.10;72.10;;;;;;4879481;29;20045;-79
2021/10/15 03:11:08;;;;;;;4.72;3.42;;;16.20;72.10;;;;;;4863820;29;20093;-79
2021/10/15 03:13:34;;;;;;;4.50;3.22;;;16.10;72.10;;;;;;4863313;29;20116;-79
2021/10/15 03:16:00;;;;;;;4.68;3.20;;;16.10;72.10;;;;;;4879125;29;20053;-79
2021/10/15 03:18:26;;;;;;;4.95;3.17;;;16.10;72.10;;;;;;4879062;29;20143;-80
2021/10/15 03:20:51;;;;;;;4.40;3.40;;;16.20;72.10;;;;;;4878764;29;20093;-79
2021/10/15 03:23:17;;;;;;;4.43;3.28;;;16.10;72.10;;;;;;4879421;29;20047;-79
2021/10/15 03:25:43;;;;;;;4.43;3.30;;;16.10;72.10;;;;;;4894375;29;20037;-79
2021/10/15 03:28:09;;;;;;;4.03;2.88;;;16.10;72.10;;;;;;4879956;29;20037;-80
2021/10/15 03:30:34;;;;;;;4.30;3.13;;;16.10;72.10;;;;;;4895061;29;20029;-80
2021/10/15 03:33:01;;;;;;;4.45;3.22;;;16.10;72.10;;;;;;4878913;29;20041;-80
2021/10/15 03:35:27;;;;;;;4.93;3.67;;;16.10;72.10;;;;;;4878668;29;20044;-80
2021/10/15 03:37:53;;;;;;;4.90;3.30;;;16.10;72.10;;;;;;4863433;29;20041;-79
2021/10/15 03:40:19;;;;;;;5.75;3.72;;;16.10;72.10;;;;;;4877759;29;20029;-79
2021/10/15 03:42:44;;;;;;;4.60;3.30;;;16.10;72.10;;;;;;4878861;29;20029;-80
2021/10/15 03:45:10;;;;;;;4.88;3.60;;;16.10;72.10;;;;;;4863497;29;20044;-80
2021/10/15 03:47:37;;;;;;;4.78;3.25;;;16.10;72.10;;;;;;4894112;29;20140;-80
2021/10/15 03:50:04;;;;;;;5.30;3.35;;;16.10;72.10;;;;;;4879443;29;20138;-79
2021/10/15 03:52:30;;;;;;;4.93;3.28;;;16.10;72.10;;;;;;4879947;29;20033;-79
2021/10/15 03:54:56;;;;;;;4.30;3.30;;;16.10;72.20;;;;;;4894411;29;20040;-80
2021/10/15 03:57:22;;;;;;;4.88;3.40;;;16.10;72.10;;;;;;4879979;29;20045;-80
2021/10/15 03:59:48;;;;;;;5.53;3.97;;;16.10;72.10;;;;;;4879198;29;20449;-79
2021/10/15 04:02:14;;;;;;;5.40;3.30;;;16.10;72.10;;;;;;4862741;29;20033;-79
2021/10/15 04:04:40;;;;;;;4.82;3.10;;;16.10;72.20;;;;;;4894290;29;20475;-79
2021/10/15 04:07:05;;;;;;;4.82;3.58;;;16.00;72.10;;;;;;4862918;29;20442;-80
2021/10/15 04:09:31;;;;;;;4.55;3.05;;;16.00;72.10;;;;;;4878885;29;20147;-79
2021/10/15 04:11:57;;;;;;;4.45;3.10;;;16.00;72.10;;;;;;4862688;29;20498;-79
2021/10/15 04:14:26;;;;;;;5.25;3.60;;;16.00;72.10;;;;;;4878432;29;20072;-79
2021/10/15 04:16:52;;;;;;;5.20;3.45;;;16.10;72.20;;;;;;4878099;29;20411;-79
2021/10/15 04:19:17;;;;;;;4.38;3.05;;;16.10;72.20;;;;;;4863533;29;20379;-79
2021/10/15 04:21:43;;;;;;;5.43;3.58;;;16.00;72.10;;;;;;4878200;29;20040;-79
2021/10/15 04:24:09;;;;;;;4.63;3.28;;;16.00;72.20;;;;;;4878786;29;20492;-79
2021/10/15 04:26:35;;;;;;;4.13;3.22;;;16.10;72.20;;;;;;4878309;29;20057;-80
2021/10/15 04:29:01;;;;;;;4.57;3.15;;;16.10;72.20;;;;;;4909296;29;20053;-79
2021/10/15 04:31:26;;;;;;;4.68;3.55;;;16.00;72.10;;;;;;4879005;29;20070;-79
2021/10/15 04:33:52;;;;;;;4.47;3.28;;;16.00;72.20;;;;;;4878233;29;20033;-79
2021/10/15 04:36:18;;;;;;;4.43;3.25;;;16.00;72.20;;;;;;4877851;29;20112;-80
2021/10/15 04:38:44;;;;;;;5.45;3.63;;;16.10;72.20;;;;;;4862626;29;20080;-79
2021/10/15 04:41:09;;;;;;;5.35;3.65;;;16.00;72.20;;;;;;4879234;29;20352;-79
2021/10/15 04:43:35;;;;;;;4.72;3.30;;;16.00;72.20;;;;;;4878320;29;20058;-79
2021/10/15 04:46:01;;;;;;;5.07;3.60;;;16.00;72.20;;;;;;4877970;29;20048;-79
2021/10/15 04:48:27;;;;;;;5.38;3.60;;;16.00;72.20;;;;;;4847301;29;20471;-78
2021/10/15 04:50:53;;;;;;;4.53;3.22;;;16.00;72.20;;;;;;4862432;29;20101;-79
2021/10/15 04:53:19;;;;;;;5.03;3.60;;;16.10;72.30;;;;;;4882320;29;20032;-79
2021/10/15 04:58:29;;;;;;;4.32;3.30;;;16.00;72.20;;;;;;4868955;29;20056;-79
2021/10/15 05:00:54;;;;;;;4.63;3.15;;;16.00;72.20;;;;;;4897279;29;20123;-81
2021/10/15 05:03:20;;;;;;;4.57;3.35;;;16.00;72.20;;;;;;4882156;29;20090;-78
2021/10/15 05:05:46;;;;;;;4.47;3.25;;;16.00;72.20;;;;;;4882059;29;20386;-79
2021/10/15 05:08:14;;;;;;;4.53;3.47;;;16.00;72.20;;;;;;4865633;29;20049;-79
2021/10/15 05:10:41;;;;;;;4.72;3.40;;;16.00;72.30;;;;;;4866451;29;20089;-81
2021/10/15 05:13:09;;;;;;;4.63;3.40;;;16.00;72.30;;;;;;4912396;29;20128;-80
2021/10/15 05:15:35;;;;;;;4.57;3.50;;;16.00;72.30;;;;;;4880713;29;20037;-82
2021/10/15 05:18:01;;;;;;;4.38;3.35;;;16.00;72.30;;;;;;4912831;29;20475;-81
2021/10/15 05:20:26;;;;;;;4.60;3.28;;;16.00;72.30;;;;;;4881559;29;20472;-79
2021/10/15 05:22:52;;;;;;;6.22;4.15;;;15.90;72.20;;;;;;4865353;29;20068;-80
2021/10/15 05:25:18;;;;;;;4.75;3.38;;;16.00;72.30;;;;;;4880827;29;20041;-79
2021/10/15 05:27:44;;;;;;;4.78;3.70;;;16.00;72.30;;;;;;4865438;29;20052;-79
2021/10/15 05:30:12;;;;;;;5.38;3.60;;;16.00;72.30;;;;;;4880934;29;20043;-79
2021/10/15 05:32:38;;;;;;;4.70;3.50;;;16.00;73.00;;;;;;4881158;29;20033;-79
2021/10/15 05:35:06;;;;;;;6.32;3.97;;;16.00;72.40;;;;;;4881911;29;20029;-80
2021/10/15 05:37:31;;;;;;;5.32;3.88;;;15.90;72.30;;;;;;4881585;29;20057;-79
2021/10/15 05:39:57;;;;;;;5.95;4.32;;;16.00;72.40;;;;;;4881941;29;20140;-79
2021/10/15 05:42:23;;;;;;;5.70;3.83;;;16.00;72.40;;;;;;4881539;29;20045;-79
2021/10/15 05:44:49;;;;;;;5.70;4.13;;;16.00;72.40;;;;;;4896179;29;20037;-79
2021/10/15 05:47:15;;;;;;;5.25;3.95;;;16.00;72.40;;;;;;4849635;29;20037;-79
2021/10/15 05:49:41;;;;;;;5.25;3.72;;;15.90;73.00;;;;;;4882433;29;20044;-79
2021/10/15 05:52:12;;;;;;;4.97;3.85;;;15.90;72.30;;;;;;4864960;29;20025;-79
2021/10/15 05:54:55;;;;;;;5.35;3.63;;;16.00;72.40;;;;;;4896735;29;20033;-79
2021/10/15 05:59:55;;;;;;;5.57;4.10;;;15.90;72.30;;;;;;4881234;29;20043;-78
2021/10/15 06:02:21;;;;;;;5.45;3.92;;;15.90;72.30;;;;;;4864488;29;20029;-79
2021/10/15 06:15:35;;;;;;;5.65;4.05;;;15.90;72.40;;;;;;4880496;29;20498;-79
2021/10/15 06:18:11;;;;;;;7.40;3.95;;;15.90;72.40;;;;;;4911224;29;20088;-79
2021/10/15 06:20:38;;;;;;;5.68;4.07;;;15.90;72.50;;;;;;4880694;29;20052;-78
2021/10/15 06:23:04;;;;;;;5.75;4.15;;;15.90;72.50;;;;;;4879637;29;20542;-79
2021/10/15 06:25:30;;;;;;;4.65;3.72;;;15.90;72.50;;;;;;4880437;29;20081;-79
2021/10/15 06:28:02;;;;;;;5.18;4.15;;;15.90;72.50;;;;;;4879534;29;20053;-78
2021/10/15 06:30:30;;;;;;;5.90;3.88;;;16.00;72.50;;;;;;4864614;29;20484;-79
2021/10/15 06:32:56;;;;;;;5.93;3.92;;;15.90;72.50;;;;;;4864271;29;20426;-77
2021/10/15 06:35:22;;;;;;;5.68;3.80;;;15.90;72.50;;;;;;4910888;29;20148;-77
2021/10/15 06:37:48;;;;;;;5.63;4.18;;;16.00;72.60;;;;;;4880007;29;20104;-79
2021/10/15 06:40:14;;;;;;;5.60;3.85;;;16.00;72.60;;;;;;4910812;29;20480;-79
2021/10/15 06:42:40;;;;;;;6.22;4.28;;;15.90;72.50;;;;;;4895237;29;20025;-79
2021/10/15 06:45:06;;;;;;;5.28;4.25;;;16.00;72.60;;;;;;4879482;29;20029;-79
2021/10/15 06:47:32;;;;;;;6.05;4.07;;;15.90;72.50;;;;;;4880796;29;20117;-79
2021/10/15 06:50:00;;;;;;;5.00;4.07;;;15.90;72.50;;;;;;4879613;29;20037;-78
2021/10/15 06:52:26;;;;;;;6.75;4.00;;;15.90;72.60;;;;;;4879572;29;20040;-78
2021/10/15 06:54:51;;;;;;;5.88;4.40;;;16.00;72.60;;;;;;4879325;29;20398;-77
2021/10/15 06:57:17;;;;;;;5.13;4.05;;;15.90;72.60;;;;;;4863696;29;20138;-78
2021/10/15 06:59:43;;;;;;;5.32;4.03;;;15.90;72.60;;;;;;4879448;29;20075;-77
2021/10/15 07:02:09;;;;;;;5.35;4.13;;;16.00;72.60;;;;;;4878938;29;20472;-78
2021/10/15 07:04:35;;;;;;;5.40;4.20;;;15.90;72.60;;;;;;4880302;29;20066;-77
2021/10/15 07:07:02;;;;;;;5.32;3.80;;;15.90;72.60;;;;;;4863658;29;20072;-78
2021/10/15 07:09:27;;;;;;;5.35;3.97;;;16.00;72.60;;;;;;4911132;29;20464;-78
2021/10/15 07:11:53;;;;;;;5.43;4.22;;;16.00;72.60;;;;;;4863461;29;20124;-79
2021/10/15 07:14:19;;;;;;;6.40;4.65;;;16.00;72.60;;;;;;4864023;29;20029;-79
2021/10/15 07:16:46;;;;;;;5.95;4.25;;;16.00;72.70;;;;;;4913175;29;20056;-79
2021/10/15 07:19:19;;;;;;;5.97;4.07;;;16.00;72.70;;;;;;4866305;29;20036;-79
2021/10/15 07:21:49;;;;;;;6.57;4.70;;;16.00;72.80;;;;;;4882391;29;20036;-79
2021/10/15 07:24:15;;;;;;;4.95;3.92;;;15.90;72.70;;;;;;4866410;29;20047;-78
2021/10/15 07:26:53;;;;;;;4.55;3.58;;;15.90;73.30;;;;;;4882636;29;20111;-79
2021/10/15 07:29:29;;;;;;;5.60;3.95;;;16.00;72.80;;;;;;4866526;29;20064;-79
2021/10/15 07:31:58;;;;;;;5.25;3.58;;;15.90;72.80;;;;;;4882664;29;20040;-79
2021/10/15 07:34:32;;;;;;;4.70;3.28;;;15.90;72.70;;;;;;4882710;29;20028;-79
2021/10/15 07:36:58;;;;;;;3.67;2.70;;;16.00;72.80;;;;;;4898593;29;20032;-79
2021/10/15 07:39:26;;;;;;;3.75;2.70;;;16.00;72.80;;;;;;4881942;29;20119;-79
2021/10/15 07:41:52;;;;;;;3.92;2.60;;;16.00;72.90;;;;;;4881302;29;20044;-79
2021/10/15 07:44:18;;;;;;;3.33;2.40;;;16.00;72.80;;;;;;4881513;29;20105;-79
2021/10/15 07:46:46;;;;;;;2.10;1.58;;;15.90;72.80;;;;;;4866441;29;20040;-79
2021/10/15 07:49:20;;;;;;;2.22;1.67;;;16.00;72.90;;;;;;4866642;29;20064;-79
2021/10/15 07:51:51;;;;;;;1.80;1.60;;;16.00;72.90;;;;;;4866733;29;20119;-79
2021/10/15 07:54:35;;;;;;;1.80;1.42;;;15.90;72.80;;;;;;4883433;29;20123;-79
2021/10/15 07:57:13;;;;;;;2.17;1.35;;;15.90;72.80;;;;;;4881363;29;20085;-79
2021/10/15 07:59:41;;;;;;;1.70;1.48;;;16.00;73.50;;;;;;4867590;29;20538;-79
2021/10/15 08:02:08;;;;;;;2.05;1.45;;;15.90;72.70;;;;;;4865727;29;20025;-78
2021/10/15 08:04:35;;;;;;;1.60;1.38;;;15.90;72.80;;;;;;4898473;29;20053;-79
2021/10/15 08:07:02;;;;;;;1.60;1.20;;;15.90;72.80;;;;;;4881683;29;20538;-79
2021/10/15 08:09:28;;;;;;;1.65;1.23;;;15.90;72.80;;;;;;4881288;29;20060;-79
2021/10/15 08:11:54;;;;;;;1.27;1.08;;;15.90;72.80;;;;;;4898984;29;20037;-79
2021/10/15 08:14:22;;;;;;;1.35;1.20;;;15.90;72.80;;;;;;4882176;29;20104;-79
2021/10/15 08:16:53;;;;;;;1.15;1.05;;;15.90;72.80;;;;;;4862897;29;20109;-79
2021/10/15 08:19:19;;;;;;;1.42;1.20;;;15.90;72.90;;;;;;4863550;29;20493;-79
2021/10/15 08:21:45;;;;;;;1.02;0.90;;;15.90;72.80;;;;;;4878755;29;20097;-79
2021/10/15 08:24:11;;;;;;;0.90;0.90;;;15.90;72.90;;;;;;4878363;29;20475;-79
2021/10/15 08:26:37;;;;;;;1.10;0.90;;;15.90;72.90;;;;;;4879962;29;20021;-79
2021/10/15 08:29:03;;;;;;;1.10;1.00;;;15.90;72.90;;;;;;4882986;29;20049;-79
2021/10/15 08:31:29;;;;;;;1.58;1.10;;;15.90;72.90;;;;;;4881386;29;20036;-79
2021/10/15 08:33:56;;;;;;;1.00;0.90;;;15.90;72.90;;;;;;4866289;29;20445;-78
2021/10/15 08:36:24;;;;;;;1.52;1.00;;;15.80;72.90;;;;;;4881422;29;20113;-79
2021/10/15 08:38:51;;;;;;;1.30;1.10;;;15.80;72.90;;;;;;4882215;29;20041;-79
2021/10/15 08:41:23;;;;;;;1.23;1.05;;;15.90;72.90;;;;;;4881640;29;20033;-80
2021/10/15 08:44:10;;;;;;;0.98;0.90;;;15.80;72.90;;;;;;4881819;29;20048;-79
2021/10/15 08:46:36;;;;;;;0.80;0.80;;;15.80;72.90;;;;;;4883309;29;20438;-77
2021/10/15 08:49:02;;;;;;;0.82;0.77;;;15.80;72.90;;;;;;4882888;29;20036;-79
2021/10/15 08:51:28;;;;;;;0.80;0.80;;;15.80;73.00;;;;;;4882414;29;20149;-81
2021/10/15 08:53:58;;;;;;;1.10;0.90;;;15.80;73.00;;;;;;4881496;29;20049;-81
2021/10/15 08:56:30;;;;;;;1.17;0.90;;;15.80;73.00;;;;;;4881574;29;20021;-80
2021/10/15 08:59:04;;;;;;;0.95;0.73;;;15.80;73.00;;;;;;4882677;29;20455;-81
2021/10/15 09:01:48;;;;;;;1.05;0.80;;;15.80;73.10;;;;;;4865776;29;20371;-80
2021/10/15 09:04:18;;;;;;;0.82;0.80;;;15.80;73.20;;;;;;4882858;29;20033;-80
2021/10/15 09:06:47;;;;;;;0.75;0.70;;;15.80;73.00;;;;;;4912970;29;20037;-82
2021/10/15 09:09:12;;;;;;;4.72;1.00;;;15.80;73.10;;;;;;4896669;29;20041;-80
2021/10/15 09:11:47;;;;;;;0.75;0.75;;;15.80;73.10;;;;;;4896841;29;20044;-80
2021/10/15 09:14:24;;;;;;;1.17;0.88;;;15.80;73.10;;;;;;4882732;29;20478;-80
2021/10/15 09:16:57;;;;;;;0.68;0.68;;;15.80;73.20;;;;;;4885662;29;20041;-80
2021/10/15 09:19:44;;;;;;;0.75;0.75;;;15.80;73.20;;;;;;4884063;29;20131;-80
2021/10/15 09:22:29;;;;;;;1.10;0.70;;;15.80;73.20;;;;;;4883746;29;20465;-81
2021/10/15 09:25:08;;;;;;;1.52;0.70;;;15.70;73.20;;;;;;4884231;29;20060;-80
2021/10/15 09:27:38;;;;;;;1.48;0.88;;;15.80;73.20;;;;;;4901546;29;20132;-80
2021/10/15 09:30:14;;;;;;;1.30;0.93;;;15.80;73.20;;;;;;4884021;29;20044;-80
2021/10/15 09:32:46;;;;;;;1.08;0.85;;;15.80;73.30;;;;;;4900739;29;20478;-81
2021/10/15 09:35:14;;;;;;;1.80;0.73;;;15.80;73.30;;;;;;4868893;29;20052;-80
2021/10/15 09:37:43;;;;;;;1.65;0.90;;;15.80;73.30;;;;;;4883699;29;20080;-82
2021/10/15 09:40:11;;;;;;;1.05;0.73;;;15.80;73.40;;;;;;4898858;29;20332;-79
2021/10/15 09:42:58;;;;;;;0.80;0.80;;;15.80;73.30;;;;;;4868882;29;20340;-79
2021/10/15 09:45:45;;;;;;;1.27;1.00;;;15.80;73.30;;;;;;4883905;29;20573;-81
2021/10/15 09:48:32;;;;;;;0.95;0.80;;;15.80;73.30;;;;;;4915807;29;20088;-81
2021/10/15 09:51:15;;;;;;;1.20;0.75;;;15.80;73.40;;;;;;4882930;29;20037;-81
2021/10/15 09:54:01;;;;;;;1.00;0.80;;;15.80;73.40;;;;;;4883065;29;20044;-81
2021/10/15 09:56:59;;;;;;;1.33;0.80;;;15.80;73.30;;;;;;4883943;29;20358;-82
2021/10/15 09:59:42;;;;;;;1.40;0.90;;;15.80;73.50;;;;;;4842829;29;20048;-81
2021/10/15 10:02:07;;;;;;;1.05;0.82;;;15.80;73.50;;;;;;4899718;29;20028;-81
2021/10/15 10:04:33;;;;;;;1.17;0.77;;;15.80;73.30;;;;;;4852769;29;20040;-80
2021/10/15 10:06:59;;;;;;;0.98;0.80;;;15.90;73.40;;;;;;4882949;29;20115;-81
2021/10/15 10:09:25;;;;;;;1.58;0.90;;;15.90;73.40;;;;;;4882874;29;20044;-81
2021/10/15 10:11:52;;;;;;;2.22;0.90;;;15.90;73.40;;;;;;4900155;29;20032;-81
2021/10/15 10:14:21;;;;;;;1.50;0.90;;;15.90;73.40;;;;;;4899501;29;20120;-81
2021/10/15 10:16:49;;;;;;;1.35;0.90;;;15.90;73.40;;;;;;4882525;29;20033;-80
2021/10/15 10:19:16;;;;;;;0.90;0.90;;;15.90;73.30;;;;;;4914587;29;20084;-80
2021/10/15 10:21:44;;;;;;;1.60;0.82;;;16.00;73.40;;;;;;4882055;29;20044;-81
2021/10/15 10:24:14;;;;;;;0.77;0.77;;;16.00;73.40;;;;;;4882312;29;20028;-82
2021/10/15 10:26:43;;;;;;;1.33;0.82;;;16.00;73.40;;;;;;4883092;29;20032;-80
2021/10/15 10:29:09;;;;;;;1.60;0.70;;;16.00;73.30;;;;;;4882320;29;20497;-80
2021/10/15 10:31:35;;;;;;;0.70;0.70;;;16.00;73.20;;;;;;4899262;29;20028;-81
2021/10/15 10:34:04;;;;;;;2.35;0.88;;;16.00;73.20;;;;;;4882047;29;20044;-81
2021/10/15 10:36:32;;;;;;;1.05;0.90;;;16.10;73.30;;;;;;4882671;29;20033;-81
2021/10/15 10:39:18;;;;;;;1.45;1.00;;;16.10;73.30;;;;;;4898986;29;20028;-81
2021/10/15 10:42:20;;;;;;;1.35;0.70;;;16.10;73.40;;;;;;4898786;29;20032;-81
2021/10/15 10:44:49;;;;;;;2.85;1.17;;;16.10;73.40;;;;;;4882011;29;20115;-81
2021/10/15 10:47:22;;;;;;;1.35;1.10;;;16.10;73.30;;;;;;4882142;29;20029;-81
2021/10/15 10:50:04;;;;;;;1.02;0.80;;;16.10;73.40;;;;;;4898386;29;20045;-80
2021/10/15 10:52:57;;;;;;;1.30;0.80;;;16.10;73.50;;;;;;4898817;29;20068;-81
2021/10/15 10:55:45;;;;;;;0.98;0.90;;;16.20;73.40;;;;;;4878333;29;20053;-81
2021/10/15 10:58:32;;;;;;;3.50;0.95;;;16.20;73.50;;;;;;4882902;29;20036;-81
2021/10/15 11:01:26;;;;;;;1.23;1.10;;;16.20;73.60;;;;;;4881757;29;20520;-80
2021/10/15 11:03:52;;;;;;;1.85;0.90;;;16.20;73.60;;;;;;4882154;29;20405;-81
2021/10/15 11:06:18;;;;;;;1.92;1.00;;;16.20;73.40;;;;;;4882016;29;20478;-83
2021/10/15 11:08:51;;;;;;;2.67;0.95;;;16.20;73.40;;;;;;4896278;29;20143;-81
2021/10/15 11:11:19;;;;;;;2.83;1.02;;;16.20;73.40;;;;;;4898525;29;20040;-80
2021/10/15 11:13:45;;;;;;;2.65;0.98;;;16.20;73.40;;;;;;4867354;29;20036;-80
2021/10/15 11:16:25;;;;;;;1.83;0.88;;;16.20;73.40;;;;;;4881905;29;20043;-81
2021/10/15 11:18:55;;;;;;;2.22;1.30;;;16.20;73.50;;;;;;4878260;29;20057;-81
2021/10/15 11:21:22;;;;;;;2.55;1.00;;;16.20;73.30;;;;;;4863979;29;20136;-80
2021/10/15 11:23:48;;;;;;;3.00;0.77;;;16.20;73.30;;;;;;4909768;29;20093;-80
2021/10/15 11:26:14;;;;;;;3.40;1.02;;;16.20;73.20;;;;;;4878859;29;20037;-78
2021/10/15 11:28:40;;;;;;;3.97;1.08;;;16.20;73.10;;;;;;4863054;29;20052;-79
2021/10/15 11:31:12;;;;;;;3.30;1.15;;;16.30;73.10;;;;;;4910772;29;20077;-79
2021/10/15 11:33:39;;;;;;;2.40;0.80;;;16.20;73.00;;;;;;4878952;29;20128;-79
2021/10/15 11:36:08;;;;;;;1.77;0.98;;;16.20;72.90;;;;;;4878831;29;20355;-78
2021/10/15 11:38:37;;;;;;;1.70;0.80;;;16.20;72.90;;;;;;4910150;29;20406;-79
2021/10/15 11:41:09;;;;;;;1.63;0.88;;;16.20;72.80;;;;;;4879595;29;20506;-78
2021/10/15 11:43:41;;;;;;;3.60;1.05;;;16.30;72.80;;;;;;4878683;29;20033;-80
2021/10/15 11:46:14;;;;;;;1.27;0.90;;;16.30;72.80;;;;;;4880144;29;20112;-79
2021/10/15 11:48:48;;;;;;;1.50;0.90;;;16.30;72.70;;;;;;4910128;29;20124;-78
2021/10/15 11:51:16;;;;;;;1.27;0.88;;;16.30;72.70;;;;;;4879275;29;20120;-80
2021/10/15 11:53:54;;;;;;;1.30;0.80;;;16.30;72.70;;;;;;4879497;29;20419;-79
2021/10/15 11:56:27;;;;;;;2.50;1.10;;;16.30;72.80;;;;;;4877917;29;20065;-79
2021/10/15 11:58:55;;;;;;;2.33;0.70;;;16.30;72.70;;;;;;4909489;29;20109;-79
2021/10/15 12:01:31;;;;;;;0.75;0.60;;;16.30;72.60;;;;;;4878468;29;20041;-79
2021/10/15 12:04:01;;;;;;;1.45;1.00;;;16.30;72.70;;;;;;4882341;29;20045;-79
2021/10/15 12:06:39;;;;;;;2.13;0.90;;;16.30;72.60;;;;;;4881445;29;20029;-79
2021/10/15 12:09:16;;;;;;;2.55;0.95;;;16.30;72.60;;;;;;4882959;29;20052;-79
2021/10/15 12:11:53;;;;;;;1.65;0.82;;;16.30;72.60;;;;;;4882611;29;20029;-80
2021/10/15 12:14:30;;;;;;;1.98;0.77;;;16.30;72.60;;;;;;4882418;29;20088;-78
2021/10/15 12:17:03;;;;;;;1.90;0.77;;;16.30;72.60;;;;;;4884348;29;20041;-79
2021/10/15 12:19:34;;;;;;;1.98;0.90;;;16.30;72.50;;;;;;4901631;29;20037;-79
2021/10/15 12:22:13;;;;;;;0.70;0.70;;;16.30;73.10;;;;;;4901082;29;20060;-79
2021/10/15 12:25:05;;;;;;;1.67;0.70;;;16.30;72.40;;;;;;4916731;29;20028;-79
2021/10/15 12:27:38;;;;;;;1.10;0.70;;;16.30;72.20;;;;;;4874098;29;20076;-79
2021/10/15 12:30:16;;;;;;;1.58;0.80;;;16.30;72.10;;;;;;4884130;29;20461;-79
2021/10/15 12:32:42;;;;;;;1.67;0.80;;;16.30;72.10;;;;;;4901553;29;20025;-79
2021/10/15 12:35:20;;;;;;;1.80;0.90;;;16.30;72.00;;;;;;4884100;29;20033;-79
2021/10/15 12:37:56;;;;;;;1.95;0.93;;;16.30;71.90;;;;;;4884560;29;20047;-79
2021/10/15 12:40:23;;;;;;;1.33;0.75;;;16.30;71.90;;;;;;4884445;29;20107;-79
2021/10/15 12:43:06;;;;;;;1.75;0.90;;;16.30;71.80;;;;;;4883813;29;20496;-79
2021/10/15 12:45:42;;;;;;;1.73;0.90;;;16.30;71.80;;;;;;4869390;29;20024;-79
2021/10/15 12:48:18;;;;;;;1.75;1.00;;;16.30;71.70;;;;;;4884230;29;20470;-79
2021/10/15 12:51:34;;;;;;;1.58;1.08;;;16.30;71.70;;;;;;4887482;29;20028;-79
2021/10/15 12:54:00;;;;;;;3.47;0.95;;;16.30;71.90;;;;;;4814573;29;20046;-78
2021/10/15 12:56:30;;;;;;;3.08;1.17;;;16.30;71.60;;;;;;4814022;29;20035;-78
2021/10/15 12:58:58;;;;;;;1.73;1.02;;;16.30;71.60;;;;;;4872359;29;20044;-79
2021/10/15 13:01:28;;;;;;;2.35;0.93;;;16.30;71.60;;;;;;4887876;29;20536;-79
2021/10/15 13:03:55;;;;;;;3.72;1.05;;;16.40;71.60;;;;;;4901573;29;20072;-79
2021/10/15 13:06:21;;;;;;;1.88;1.02;;;16.40;72.20;;;;;;4868816;29;20037;-78
2021/10/15 13:08:49;;;;;;;4.20;1.20;;;16.40;71.50;;;;;;4900818;29;20115;-78
2021/10/15 13:11:21;;;;;;;2.95;1.10;;;16.40;71.40;;;;;;4901584;29;20028;-78
2021/10/15 13:13:51;;;;;;;2.85;1.40;;;16.40;71.40;;;;;;4883549;29;20032;-78
2021/10/15 13:16:18;;;;;;;4.50;1.10;;;16.40;71.30;;;;;;4884731;29;20041;-79